createdAt,value
2019-02-04T00:00:08.257Z,16.00
2019-02-04T00:02:41.203Z,14.47
2019-02-04T00:05:12.465Z,9.03
2019-02-04T00:07:43.772Z,12.20
2019-02-04T00:10:15.244Z,13.30
2019-02-04T00:12:47.042Z,9.60
2019-02-04T00:15:18.665Z,11.93
2019-02-04T00:17:49.917Z,11.07
2019-02-04T00:20:21.218Z,9.17
2019-02-04T00:22:52.524Z,11.10
2019-02-04T00:25:24.861Z,13.47
2019-02-04T00:27:57.202Z,8.60
2019-02-04T00:30:30.753Z,10.90
2019-02-04T00:33:01.725Z,14.60
2019-02-04T00:35:32.986Z,11.63
2019-02-04T00:38:04.440Z,13.23
2019-02-04T00:40:36.090Z,12.27
2019-02-04T00:43:07.406Z,12.83
2019-02-04T00:45:38.725Z,11.87
2019-02-04T00:48:09.932Z,11.67
2019-02-04T00:50:41.222Z,11.43
2019-02-04T00:53:12.645Z,11.17
2019-02-04T00:55:43.939Z,12.47
2019-02-04T00:58:15.252Z,15.87
2019-02-04T01:00:47.759Z,13.53
2019-02-04T01:03:19.011Z,9.10
2019-02-04T01:05:50.325Z,10.93
2019-02-04T01:08:21.700Z,11.53
2019-02-04T01:10:53.947Z,12.67
2019-02-04T01:13:25.258Z,11.37
2019-02-04T01:15:56.494Z,9.60
2019-02-04T01:18:27.840Z,11.03
2019-02-04T01:20:59.078Z,12.77
2019-02-04T01:23:30.385Z,13.87
2019-02-04T01:26:01.761Z,11.20
2019-02-04T01:28:33.031Z,10.97
2019-02-04T01:31:04.395Z,12.13
2019-02-04T01:33:35.788Z,16.50
2019-02-04T01:36:06.973Z,11.80
2019-02-04T01:38:38.446Z,12.37
2019-02-04T01:41:10.095Z,8.83
2019-02-04T01:43:41.609Z,12.90
2019-02-04T01:46:13.155Z,13.27
2019-02-04T01:48:44.497Z,12.27
2019-02-04T01:51:15.904Z,10.77
2019-02-04T01:53:47.522Z,12.43
2019-02-04T01:56:18.779Z,14.23
2019-02-04T01:58:50.119Z,10.00
2019-02-04T02:01:21.542Z,11.20
2019-02-04T02:03:52.831Z,9.23
2019-02-04T02:06:24.430Z,10.97
2019-02-04T02:08:55.718Z,12.93
2019-02-04T02:11:27.125Z,8.40
2019-02-04T02:13:58.407Z,8.07
2019-02-04T02:16:29.847Z,8.77
2019-02-04T02:19:01.366Z,9.10
2019-02-04T02:21:32.734Z,9.57
2019-02-04T02:24:03.960Z,9.70
2019-02-04T02:26:36.476Z,11.87
2019-02-04T02:29:07.824Z,9.33
2019-02-04T02:31:39.078Z,8.47
2019-02-04T02:34:10.259Z,12.07
2019-02-04T02:36:41.535Z,13.10
2019-02-04T02:39:12.764Z,10.50
2019-02-04T02:41:43.971Z,9.63
2019-02-04T02:44:15.320Z,8.17
2019-02-04T02:46:46.487Z,13.50
2019-02-04T02:49:17.648Z,10.23
2019-02-04T02:51:48.886Z,12.87
2019-02-04T02:54:20.097Z,9.00
2019-02-04T02:56:51.640Z,7.67
2019-02-04T02:59:22.901Z,10.83
2019-02-04T03:01:54.129Z,9.83
2019-02-04T03:04:25.447Z,8.90
2019-02-04T03:06:56.628Z,9.37
2019-02-04T03:09:28.010Z,8.53
2019-02-04T03:11:59.201Z,8.80
2019-02-04T03:14:30.605Z,7.53
2019-02-04T03:17:01.847Z,10.33
2019-02-04T03:19:33.047Z,12.37
2019-02-04T03:22:04.271Z,9.20
2019-02-04T03:24:35.531Z,10.30
2019-02-04T03:27:06.706Z,14.43
2019-02-04T03:29:37.969Z,7.73
2019-02-04T03:32:09.143Z,9.97
2019-02-04T03:34:40.391Z,8.07
2019-02-04T03:37:11.622Z,7.00
2019-02-04T03:39:42.825Z,8.90
2019-02-04T03:42:13.987Z,9.63
2019-02-04T03:44:45.346Z,11.03
2019-02-04T03:47:16.732Z,9.43
2019-02-04T03:49:47.915Z,8.97
2019-02-04T03:52:19.192Z,11.30
2019-02-04T03:54:50.501Z,11.63
2019-02-04T03:57:21.788Z,9.43
2019-02-04T03:59:53.089Z,9.70
2019-02-04T04:02:24.461Z,9.13
2019-02-04T04:04:55.631Z,11.73
2019-02-04T04:07:26.778Z,11.43
2019-02-04T04:09:58.055Z,10.37
2019-02-04T04:12:29.210Z,9.67
2019-02-04T04:15:00.507Z,13.13
2019-02-04T04:17:31.808Z,11.87
2019-02-04T04:20:02.949Z,9.97
2019-02-04T04:22:34.179Z,9.20
2019-02-04T04:25:06.721Z,14.07
2019-02-04T04:27:37.957Z,13.13
2019-02-04T04:30:25.420Z,16.40
2019-02-04T04:32:57.395Z,10.40
2019-02-04T04:35:28.656Z,12.73
2019-02-04T04:37:59.976Z,13.40
2019-02-04T04:40:31.314Z,12.23
2019-02-04T04:43:02.664Z,12.93
2019-02-04T04:45:34.416Z,12.17
2019-02-04T04:48:05.674Z,9.23
2019-02-04T04:50:36.856Z,12.50
2019-02-04T04:53:08.041Z,13.40
2019-02-04T04:55:39.307Z,8.77
2019-02-04T04:58:11.226Z,9.43
2019-02-04T05:00:42.500Z,11.90
2019-02-04T05:03:13.737Z,8.00
2019-02-04T05:05:45.106Z,11.17
2019-02-04T05:08:16.311Z,8.63
2019-02-04T05:10:48.047Z,9.00
2019-02-04T05:13:19.297Z,11.43
2019-02-04T05:15:51.235Z,9.87
2019-02-04T05:18:22.706Z,10.90
2019-02-04T05:20:53.885Z,12.67
2019-02-04T05:23:25.180Z,9.87
2019-02-04T05:25:56.400Z,12.13
2019-02-04T05:28:27.694Z,17.37
2019-02-04T05:30:58.846Z,10.33
2019-02-04T05:33:30.030Z,9.27
2019-02-04T05:36:01.260Z,10.07
2019-02-04T05:38:32.476Z,13.23
2019-02-04T05:41:03.721Z,7.67
2019-02-04T05:43:34.969Z,9.50
2019-02-04T05:46:06.314Z,10.20
2019-02-04T05:48:48.794Z,12.30
2019-02-04T05:51:10.600Z,12.20
2019-02-04T05:53:41.755Z,14.53
2019-02-04T05:56:12.939Z,12.00
2019-02-04T05:58:44.145Z,12.20
2019-02-04T06:01:15.403Z,9.07
2019-02-04T06:03:46.616Z,9.07
2019-02-04T06:06:17.840Z,10.07
2019-02-04T06:08:49.102Z,12.13
2019-02-04T06:11:22.703Z,14.87
2019-02-04T06:13:53.907Z,10.60
2019-02-04T06:16:25.052Z,10.77
2019-02-04T06:19:01.044Z,11.67
2019-02-04T06:21:29.183Z,9.30
2019-02-04T06:24:00.399Z,13.90
2019-02-04T06:26:31.642Z,12.87
2019-02-04T06:29:02.831Z,10.73
2019-02-04T06:31:34.067Z,10.93
2019-02-04T06:34:05.558Z,8.83
2019-02-04T06:36:37.188Z,8.33
2019-02-04T06:39:11.533Z,10.67
2019-02-04T06:41:42.757Z,7.40
2019-02-04T06:44:13.986Z,9.70
2019-02-04T06:46:45.208Z,7.27
2019-02-04T06:49:16.694Z,6.73
2019-02-04T06:51:47.924Z,6.23
2019-02-04T06:54:19.146Z,6.00
2019-02-04T06:56:50.315Z,6.97
2019-02-04T06:59:21.555Z,7.20
2019-02-04T07:01:53.134Z,7.17
2019-02-04T07:04:24.335Z,9.07
2019-02-04T07:06:55.563Z,6.73
2019-02-04T07:09:26.767Z,6.87
2019-02-04T07:11:58.016Z,6.20
2019-02-04T07:14:29.562Z,9.03
2019-02-04T07:17:00.907Z,11.23
2019-02-04T07:19:32.222Z,8.00
2019-02-04T07:22:03.448Z,6.97
2019-02-04T07:24:42.439Z,7.23
2019-02-04T07:27:09.654Z,8.73
2019-02-04T07:29:40.839Z,9.57
2019-02-04T07:32:12.054Z,7.57
2019-02-04T07:34:43.255Z,8.50
2019-02-04T07:37:14.456Z,8.10
2019-02-04T07:39:45.663Z,10.90
2019-02-04T07:42:16.913Z,10.03
2019-02-04T07:44:48.114Z,8.70
2019-02-04T07:47:19.396Z,8.90
2019-02-04T07:49:50.640Z,7.97
2019-02-04T07:52:21.811Z,8.87
2019-02-04T07:54:53.090Z,8.60
2019-02-04T07:57:24.246Z,9.57
2019-02-04T07:59:55.594Z,9.37
2019-02-04T08:02:26.755Z,11.43
2019-02-04T08:04:57.952Z,13.20
2019-02-04T08:07:29.152Z,10.10
2019-02-04T08:10:00.382Z,13.57
2019-02-04T08:12:31.669Z,10.30
2019-02-04T08:15:02.844Z,11.80
2019-02-04T08:17:34.124Z,9.40
2019-02-04T08:20:06.281Z,10.50
2019-02-04T08:22:38.492Z,13.07
2019-02-04T08:25:11.083Z,13.07
2019-02-04T08:27:42.348Z,12.20
2019-02-04T08:30:21.137Z,11.00
2019-02-04T08:32:52.542Z,10.43
2019-02-04T08:35:23.780Z,13.40
2019-02-04T08:37:54.952Z,10.80
2019-02-04T08:40:26.184Z,10.63
2019-02-04T08:42:57.786Z,13.87
2019-02-04T08:45:28.982Z,12.23
2019-02-04T08:48:00.186Z,10.63
2019-02-04T08:50:31.460Z,13.07
2019-02-04T08:53:02.640Z,14.33
2019-02-04T08:55:33.858Z,13.80
2019-02-04T08:58:05.635Z,14.47
2019-02-04T09:00:36.842Z,12.27
2019-02-04T09:03:08.017Z,11.10
2019-02-04T09:05:39.281Z,15.40
2019-02-04T09:08:11.526Z,13.67
2019-02-04T09:10:42.695Z,16.00
2019-02-04T09:13:13.989Z,16.07
2019-02-04T09:15:45.191Z,14.97
2019-02-04T09:18:16.380Z,18.63
2019-02-04T09:20:47.695Z,17.30
2019-02-04T09:23:19.129Z,14.47
2019-02-04T09:25:50.454Z,16.87
2019-02-04T09:28:21.606Z,14.70
2019-02-04T09:30:52.822Z,17.97
2019-02-04T09:33:24.078Z,12.60
2019-02-04T09:35:55.677Z,14.27
2019-02-04T09:38:27.011Z,16.53
2019-02-04T09:40:58.230Z,14.23
2019-02-04T09:43:29.437Z,17.03
2019-02-04T09:46:00.607Z,12.20
2019-02-04T09:48:31.853Z,15.43
2019-02-04T09:51:03.516Z,14.93
2019-02-04T09:53:34.744Z,20.77
2019-02-04T09:56:06.305Z,16.23
2019-02-04T09:58:37.599Z,18.17
2019-02-04T10:01:08.835Z,17.47
2019-02-04T10:03:40.169Z,17.07
2019-02-04T10:06:11.320Z,14.43
2019-02-04T10:08:42.531Z,18.40
2019-02-04T10:11:13.732Z,19.63
2019-02-04T10:13:44.915Z,17.80
2019-02-04T10:16:16.187Z,16.47
2019-02-04T10:18:47.421Z,14.30
2019-02-04T10:21:18.560Z,17.83
2019-02-04T10:23:49.822Z,15.70
2019-02-04T10:26:21.038Z,17.20
2019-02-04T10:28:52.293Z,17.23
2019-02-04T10:31:23.635Z,14.73
2019-02-04T10:33:55.639Z,16.13
2019-02-04T10:36:26.783Z,18.97
2019-02-04T10:38:58.450Z,20.13
2019-02-04T10:41:29.718Z,15.20
2019-02-04T10:44:00.984Z,20.10
2019-02-04T10:46:32.148Z,15.83
2019-02-04T10:49:03.386Z,19.57
2019-02-04T10:51:35.127Z,13.83
2019-02-04T10:54:06.433Z,15.83
2019-02-04T10:56:37.676Z,15.23
2019-02-04T10:59:09.940Z,16.47
2019-02-04T11:01:41.205Z,15.90
2019-02-04T11:04:12.400Z,14.33
2019-02-04T11:06:44.691Z,14.03
2019-02-04T11:09:17.506Z,12.80
2019-02-04T11:11:48.752Z,16.27
2019-02-04T11:14:19.878Z,14.53
2019-02-04T11:16:51.575Z,19.20
2019-02-04T11:19:22.800Z,17.77
2019-02-04T11:21:54.119Z,17.67
2019-02-04T11:24:25.576Z,18.63
2019-02-04T11:26:57.711Z,17.50
2019-02-04T11:29:30.343Z,17.33
2019-02-04T11:32:01.691Z,16.73
2019-02-04T11:34:32.890Z,13.17
2019-02-04T11:37:04.155Z,17.37
2019-02-04T11:39:35.331Z,17.67
2019-02-04T11:42:06.845Z,16.27
2019-02-04T11:44:38.098Z,16.83
2019-02-04T11:47:09.613Z,15.30
2019-02-04T11:49:40.723Z,18.43
2019-02-04T11:52:11.925Z,18.17
2019-02-04T11:54:43.451Z,18.73
2019-02-04T11:57:14.763Z,20.63
2019-02-04T11:59:46.001Z,16.63
2019-02-04T12:02:17.213Z,19.17
2019-02-04T12:04:48.374Z,19.40
2019-02-04T12:07:19.939Z,18.80
2019-02-04T12:09:51.410Z,16.77
2019-02-04T12:12:22.656Z,19.03
2019-02-04T12:14:53.876Z,19.30
2019-02-04T12:17:25.151Z,21.13
2019-02-04T12:19:56.726Z,17.87
2019-02-04T12:22:27.877Z,17.33
2019-02-04T12:24:59.082Z,21.23
2019-02-04T12:27:32.043Z,16.87
2019-02-04T12:30:04.713Z,18.73
2019-02-04T12:32:36.139Z,18.90
2019-02-04T12:35:09.291Z,18.30
2019-02-04T12:37:40.591Z,18.10
2019-02-04T12:40:12.383Z,18.60
2019-02-04T12:42:44.090Z,22.80
2019-02-04T12:45:24.132Z,16.90
2019-02-04T12:47:55.845Z,16.50
2019-02-04T12:50:27.073Z,14.63
2019-02-04T12:52:58.231Z,15.07
2019-02-04T12:55:30.694Z,16.63
2019-02-04T12:58:02.516Z,13.17
2019-02-04T13:00:34.026Z,18.60
2019-02-04T13:03:05.343Z,16.27
2019-02-04T13:05:41.875Z,12.93
2019-02-04T13:08:13.267Z,13.30
2019-02-04T13:10:44.628Z,11.67
2019-02-04T13:13:18.021Z,13.50
2019-02-04T13:15:49.656Z,14.60
2019-02-04T13:18:20.914Z,10.57
2019-02-04T13:20:52.157Z,13.00
2019-02-04T13:23:23.393Z,11.93
2019-02-04T13:25:54.915Z,11.07
2019-02-04T13:28:26.204Z,13.10
2019-02-04T13:30:58.178Z,12.33
2019-02-04T13:33:31.275Z,12.73
2019-02-04T13:36:02.805Z,13.67
2019-02-04T13:38:34.901Z,15.77
2019-02-04T13:41:08.042Z,12.50
2019-02-04T13:43:39.582Z,12.77
2019-02-04T13:46:11.593Z,10.43
2019-02-04T13:48:43.006Z,12.83
2019-02-04T13:51:14.310Z,13.87
2019-02-04T13:53:45.560Z,10.60
2019-02-04T13:56:17.247Z,11.83
2019-02-04T13:58:48.588Z,13.83
2019-02-04T14:01:20.041Z,14.43
2019-02-04T14:03:51.328Z,13.93
2019-02-04T14:06:22.603Z,11.63
2019-02-04T14:08:54.085Z,11.50
2019-02-04T14:11:25.371Z,11.80
2019-02-04T14:13:57.384Z,11.73
2019-02-04T14:16:28.776Z,14.50
2019-02-04T14:19:03.525Z,11.40
2019-02-04T14:21:34.788Z,11.13
2019-02-04T14:24:05.946Z,10.17
2019-02-04T14:26:37.544Z,11.67
2019-02-04T14:29:08.916Z,13.00
2019-02-04T14:31:40.188Z,11.47
2019-02-04T14:34:12.940Z,10.67
2019-02-04T14:36:44.301Z,10.47
2019-02-04T14:39:17.109Z,10.00
2019-02-04T14:41:52.059Z,10.93
2019-02-04T14:44:47.932Z,9.33
2019-02-04T14:47:42.584Z,9.37
2019-02-04T14:51:13.220Z,11.33
2019-02-04T14:54:38.193Z,11.70
2019-02-04T14:57:42.306Z,11.57
2019-02-04T15:00:43.716Z,12.37
2019-02-04T15:03:38.056Z,13.07
2019-02-04T15:06:53.270Z,12.23
2019-02-04T15:10:17.374Z,16.40
2019-02-04T15:13:08.269Z,14.77
2019-02-04T15:16:08.342Z,12.97
2019-02-04T15:19:10.447Z,13.80
2019-02-04T15:22:32.846Z,15.37
2019-02-04T15:25:20.493Z,14.97
2019-02-04T15:28:12.251Z,19.57
2019-02-04T15:31:24.807Z,18.90
2019-02-04T15:35:03.843Z,20.30
2019-02-04T15:37:59.975Z,16.33
2019-02-04T15:40:37.601Z,18.83
2019-02-04T15:43:26.264Z,15.90
2019-02-04T15:46:36.511Z,17.93
2019-02-04T15:49:50.909Z,19.10
2019-02-04T15:52:22.902Z,25.97
2019-02-04T15:54:54.099Z,22.87
2019-02-04T15:57:26.499Z,25.10
2019-02-04T15:59:58.696Z,19.80
2019-02-04T16:02:30.213Z,20.40
2019-02-04T16:05:02.001Z,21.27
2019-02-04T16:07:33.723Z,19.77
2019-02-04T16:10:13.351Z,20.03
2019-02-04T16:12:47.906Z,18.30
2019-02-04T16:15:19.981Z,26.20
2019-02-04T16:17:51.294Z,25.73
2019-02-04T16:20:24.361Z,17.20
2019-02-04T16:22:58.620Z,20.70
2019-02-04T16:25:28.637Z,20.20
2019-02-04T16:27:59.937Z,22.87
2019-02-04T16:30:31.145Z,22.47
2019-02-04T16:33:02.459Z,22.77
2019-02-04T16:35:33.700Z,23.07
2019-02-04T16:38:05.532Z,21.37
2019-02-04T16:40:36.935Z,22.37
2019-02-04T16:43:08.167Z,20.13
2019-02-04T16:45:39.380Z,23.87
2019-02-04T16:48:11.727Z,25.20
2019-02-04T16:50:42.859Z,29.73
2019-02-04T16:53:14.130Z,123.83
2019-02-04T16:55:45.329Z,44.50
2019-02-04T16:58:16.923Z,26.10
2019-02-04T17:00:49.102Z,24.40
2019-02-04T17:03:20.375Z,23.20
2019-02-04T17:05:51.761Z,27.03
2019-02-04T17:08:22.961Z,25.80
2019-02-04T17:10:54.471Z,22.33
2019-02-04T17:13:25.729Z,23.53
2019-02-04T17:15:56.978Z,21.87
2019-02-04T17:18:28.231Z,46.10
2019-02-04T17:20:59.436Z,36.30
2019-02-04T17:23:31.448Z,23.47
2019-02-04T17:26:02.678Z,21.23
2019-02-04T17:28:34.042Z,22.47
2019-02-04T17:31:05.367Z,20.60
2019-02-04T17:33:36.728Z,19.90
2019-02-04T17:36:08.155Z,20.60
2019-02-04T17:38:39.327Z,22.97
2019-02-04T17:41:10.636Z,20.50
2019-02-04T17:43:41.846Z,18.87
2019-02-04T17:46:13.068Z,16.07
2019-02-04T17:48:44.539Z,22.00
2019-02-04T17:51:15.823Z,23.87
2019-02-04T17:53:47.088Z,26.53
2019-02-04T17:56:18.329Z,21.57
2019-02-04T17:58:49.559Z,19.53
2019-02-04T18:01:21.136Z,19.50
2019-02-04T18:03:52.347Z,25.07
2019-02-04T18:06:23.555Z,29.73
2019-02-04T18:08:55.076Z,33.00
2019-02-04T18:11:27.336Z,29.37
2019-02-04T18:13:58.915Z,27.30
2019-02-04T18:16:30.151Z,23.60
2019-02-04T18:19:01.428Z,22.73
2019-02-04T18:21:32.598Z,20.97
2019-02-04T18:24:03.802Z,23.23
2019-02-04T18:26:35.084Z,20.13
2019-02-04T18:29:07.712Z,18.77
2019-02-04T18:31:39.146Z,17.90
2019-02-04T18:34:11.448Z,18.77
2019-02-04T18:36:42.859Z,18.47
2019-02-04T18:39:14.650Z,16.70
2019-02-04T18:41:45.898Z,33.50
2019-02-04T18:44:18.173Z,21.83
2019-02-04T18:46:49.691Z,17.47
2019-02-04T18:49:21.097Z,19.63
2019-02-04T18:51:52.344Z,31.07
2019-02-04T18:54:25.370Z,21.10
2019-02-04T18:56:56.705Z,18.27
2019-02-04T18:59:27.978Z,15.17
2019-02-04T19:02:00.569Z,15.47
2019-02-04T19:04:31.874Z,16.00
2019-02-04T19:07:03.199Z,17.77
2019-02-04T19:09:34.624Z,15.23
2019-02-04T19:12:06.200Z,14.10
2019-02-04T19:14:37.761Z,16.20
2019-02-04T19:17:09.019Z,17.60
2019-02-04T19:19:40.245Z,16.30
2019-02-04T19:22:11.618Z,20.40
2019-02-04T19:24:43.296Z,19.23
2019-02-04T19:27:14.911Z,16.23
2019-02-04T19:29:46.175Z,17.03
2019-02-04T19:32:17.392Z,18.17
2019-02-04T19:34:48.648Z,19.23
2019-02-04T19:37:22.898Z,17.90
2019-02-04T19:39:53.920Z,19.73
2019-02-04T19:42:25.425Z,18.00
2019-02-04T19:44:56.734Z,20.17
2019-02-04T19:47:27.972Z,16.63
2019-02-04T19:49:59.185Z,16.43
2019-02-04T19:52:30.626Z,17.40
2019-02-04T19:55:01.889Z,16.50
2019-02-04T19:57:34.207Z,15.60
2019-02-04T20:00:08.151Z,16.93
2019-02-04T20:02:39.450Z,17.23
2019-02-04T20:05:12.156Z,18.10
2019-02-04T20:07:43.343Z,15.77
2019-02-04T20:10:15.638Z,18.40
2019-02-04T20:12:46.879Z,15.53
2019-02-04T20:15:20.643Z,16.23
2019-02-04T20:17:51.831Z,17.50
2019-02-04T20:20:30.078Z,16.23
2019-02-04T20:23:01.199Z,14.90
2019-02-04T20:25:33.549Z,17.17
2019-02-04T20:28:05.489Z,19.67
2019-02-04T20:30:45.652Z,20.50
2019-02-04T20:33:11.799Z,17.33
2019-02-04T20:35:43.054Z,17.60
2019-02-04T20:38:14.424Z,18.90
2019-02-04T20:40:46.074Z,21.80
2019-02-04T20:43:17.382Z,19.10
2019-02-04T20:45:48.607Z,20.90
2019-02-04T20:48:19.861Z,18.87
2019-02-04T20:50:51.251Z,19.27
2019-02-04T20:53:22.404Z,17.13
2019-02-04T20:55:53.634Z,15.27
2019-02-04T20:58:24.857Z,16.57
2019-02-04T21:00:56.056Z,15.63
2019-02-04T21:03:27.331Z,14.63
2019-02-04T21:05:58.493Z,14.37
2019-02-04T21:08:29.743Z,14.47
2019-02-04T21:11:01.000Z,15.90
2019-02-04T21:13:32.210Z,13.63
2019-02-04T21:16:03.438Z,16.63
2019-02-04T21:18:35.611Z,17.20
2019-02-04T21:21:06.874Z,16.53
2019-02-04T21:23:38.034Z,16.10
2019-02-04T21:26:09.294Z,14.77
2019-02-04T21:28:40.591Z,16.03
2019-02-04T21:31:11.773Z,13.13
2019-02-04T21:33:43.090Z,14.83
2019-02-04T21:36:14.239Z,16.43
2019-02-04T21:38:45.515Z,12.83
2019-02-04T21:41:16.791Z,13.97
2019-02-04T21:43:48.008Z,14.03
2019-02-04T21:46:19.622Z,12.63
2019-02-04T21:48:50.848Z,13.60
2019-02-04T21:51:22.336Z,13.40
2019-02-04T21:53:54.553Z,13.10
2019-02-04T21:56:25.781Z,14.17
2019-02-04T21:59:00.014Z,12.77
2019-02-04T22:01:31.231Z,12.63
2019-02-04T22:04:02.467Z,14.27
2019-02-04T22:06:33.809Z,12.77
2019-02-04T22:09:09.306Z,13.80
2019-02-04T22:11:40.514Z,13.67
2019-02-04T22:14:12.708Z,15.80
2019-02-04T22:16:43.916Z,17.43
2019-02-04T22:19:15.523Z,22.63
2019-02-04T22:21:46.782Z,19.17
2019-02-04T22:24:18.488Z,20.70
2019-02-04T22:26:49.774Z,19.47
2019-02-04T22:29:21.467Z,18.70
2019-02-04T22:31:52.677Z,19.40
2019-02-04T22:34:24.351Z,18.30
2019-02-04T22:36:55.806Z,13.13
2019-02-04T22:39:26.983Z,16.73
2019-02-04T22:41:58.173Z,15.47
2019-02-04T22:44:29.497Z,17.70
2019-02-04T22:47:00.643Z,15.13
2019-02-04T22:49:32.229Z,15.23
2019-02-04T22:52:03.466Z,15.17
2019-02-04T22:54:34.774Z,13.93
2019-02-04T22:57:06.074Z,11.73
2019-02-04T22:59:37.317Z,13.97
2019-02-04T23:02:09.432Z,12.87
2019-02-04T23:04:40.688Z,14.57
2019-02-04T23:07:11.946Z,13.23
2019-02-04T23:09:43.138Z,12.67
2019-02-04T23:12:14.537Z,11.40
2019-02-04T23:14:46.078Z,14.63
2019-02-04T23:17:17.252Z,13.23
2019-02-04T23:19:48.498Z,11.23
2019-02-04T23:22:19.696Z,12.30
2019-02-04T23:24:50.847Z,12.63
2019-02-04T23:27:22.425Z,11.77
2019-02-04T23:29:53.595Z,12.20
2019-02-04T23:32:24.823Z,13.47
2019-02-04T23:34:56.007Z,13.37
2019-02-04T23:37:28.218Z,10.63
2019-02-04T23:39:59.773Z,13.80
2019-02-04T23:42:31.011Z,14.30
2019-02-04T23:45:02.300Z,12.20
2019-02-04T23:47:34.738Z,9.00
2019-02-04T23:50:07.038Z,10.50
2019-02-04T23:52:38.589Z,11.13
2019-02-04T23:55:10.116Z,8.90
2019-02-04T23:57:41.397Z,10.20
